createdAt,value
2023-04-22T00:03:35.837Z,100600.27
2023-04-22T00:06:04.516Z,100601.70
2023-04-22T00:08:33.290Z,100601.90
2023-04-22T00:11:01.769Z,100601.80
2023-04-22T00:13:29.945Z,100600.78
2023-04-22T00:15:58.810Z,100603.69
2023-04-22T00:18:27.592Z,100605.53
2023-04-22T00:20:55.766Z,100605.92
2023-04-22T00:23:25.383Z,100605.60
2023-04-22T00:25:55.126Z,100604.90
2023-04-22T00:28:23.705Z,100603.51
2023-04-22T00:30:53.121Z,100611.20
2023-04-22T00:33:21.985Z,100609.44
2023-04-22T00:35:50.143Z,100608.02
2023-04-22T00:38:18.217Z,100604.63
2023-04-22T00:40:47.441Z,100601.45
2023-04-22T00:43:17.240Z,100598.61
2023-04-22T00:45:45.606Z,100593.27
2023-04-22T00:48:14.358Z,100592.05
2023-04-22T00:50:42.985Z,100588.66
2023-04-22T00:53:11.770Z,100586.36
2023-04-22T00:55:42.157Z,100588.33
2023-04-22T00:58:11.129Z,100589.77
2023-04-22T01:00:40.426Z,100588.89
2023-04-22T01:03:10.644Z,100586.94
2023-04-22T01:05:42.366Z,100590.52
2023-04-22T01:08:12.490Z,100584.85
2023-04-22T01:10:42.550Z,100587.15
2023-04-22T01:13:11.093Z,100582.72
2023-04-22T01:15:39.653Z,100583.44
2023-04-22T01:18:09.038Z,100582.73
2023-04-22T01:20:37.782Z,100583.63
2023-04-22T01:23:09.078Z,100585.24
2023-04-22T01:25:37.665Z,100583.83
2023-04-22T01:28:06.873Z,100582.23
2023-04-22T01:30:35.966Z,100586.71
2023-04-22T01:33:05.059Z,100584.39
2023-04-22T01:35:33.583Z,100589.92
2023-04-22T01:38:04.525Z,100583.70
2023-04-22T01:40:34.120Z,100579.97
2023-04-22T01:43:03.109Z,100581.20
2023-04-22T01:45:31.639Z,100582.30
2023-04-22T01:48:00.372Z,100582.66
2023-04-22T01:50:29.910Z,100581.60
2023-04-22T01:53:00.193Z,100580.02
2023-04-22T01:55:29.795Z,100581.80
2023-04-22T01:57:59.403Z,100580.55
2023-04-22T02:00:28.207Z,100579.84
2023-04-22T02:02:57.780Z,100577.34
2023-04-22T02:05:27.496Z,100582.15
2023-04-22T02:07:57.038Z,100584.82
2023-04-22T02:10:25.865Z,100583.23
2023-04-22T02:12:55.388Z,100582.14
2023-04-22T02:15:24.227Z,100580.01
2023-04-22T02:17:53.082Z,100574.85
2023-04-22T02:20:21.913Z,100572.38
2023-04-22T02:22:50.779Z,100566.52
2023-04-22T02:25:21.187Z,100565.64
2023-04-22T02:27:50.274Z,100563.52
2023-04-22T02:30:18.540Z,100565.30
2023-04-22T02:32:47.105Z,100562.45
2023-04-22T02:35:16.144Z,100567.09
2023-04-22T02:37:44.686Z,100565.66
2023-04-22T02:40:12.981Z,100564.95
2023-04-22T02:42:41.263Z,100565.85
2023-04-22T02:45:11.364Z,100569.41
2023-04-22T02:47:40.275Z,100569.59
2023-04-22T02:50:10.417Z,100567.63
2023-04-22T02:52:39.100Z,100567.46
2023-04-22T02:55:08.820Z,100567.30
2023-04-22T02:57:37.744Z,100568.73
2023-04-22T03:00:07.402Z,100568.74
2023-04-22T03:02:36.231Z,100575.67
2023-04-22T03:05:05.200Z,100580.32
2023-04-22T03:07:33.820Z,100579.08
2023-04-22T03:10:04.431Z,100580.16
2023-04-22T03:12:32.947Z,100582.11
2023-04-22T03:15:01.522Z,100575.90
2023-04-22T03:17:29.709Z,100573.05
2023-04-22T03:19:58.342Z,100572.83
2023-04-22T03:22:27.272Z,100574.98
2023-04-22T03:24:56.476Z,100576.43
2023-04-22T03:27:25.070Z,100579.64
2023-04-22T03:29:53.344Z,100578.04
2023-04-22T03:32:22.909Z,100576.97
2023-04-22T03:34:52.315Z,100582.30
2023-04-22T03:37:20.667Z,100581.20
2023-04-22T03:39:49.303Z,100578.90
2023-04-22T03:42:17.978Z,100576.93
2023-04-22T03:44:46.069Z,100575.15
2023-04-22T03:47:14.103Z,100577.83
2023-04-22T03:49:43.513Z,100573.57
2023-04-22T03:52:11.604Z,100577.11
2023-04-22T03:54:40.390Z,100576.41
2023-04-22T03:57:09.103Z,100578.55
2023-04-22T03:59:38.193Z,100579.45
2023-04-22T04:02:07.256Z,100581.58
2023-04-22T04:04:36.209Z,100581.94
2023-04-22T04:07:06.243Z,100581.77
2023-04-22T04:09:35.383Z,100576.60
2023-04-22T04:12:04.927Z,100572.85
2023-04-22T04:14:33.617Z,100578.57
2023-04-22T04:17:01.886Z,100586.21
2023-04-22T04:19:31.117Z,100582.30
2023-04-22T04:22:01.874Z,100586.21
2023-04-22T04:24:31.090Z,100584.08
2023-04-22T04:26:59.705Z,100584.42
2023-04-22T04:29:28.033Z,100586.03
2023-04-22T04:31:56.748Z,100586.39
2023-04-22T04:34:25.038Z,100592.98
2023-04-22T04:36:53.554Z,100597.79
2023-04-22T04:39:21.939Z,100600.27
2023-04-22T04:41:50.256Z,100601.16
2023-04-22T04:44:19.421Z,100598.48
2023-04-22T04:46:48.749Z,100602.23
2023-04-22T04:49:16.984Z,100603.12
2023-04-22T04:51:46.131Z,100609.36
2023-04-22T04:54:15.473Z,100607.57
2023-04-22T04:56:44.124Z,100603.12
2023-04-22T04:59:12.393Z,100601.70
2023-04-22T05:01:41.371Z,100602.05
2023-04-22T05:04:11.240Z,100607.05
2023-04-22T05:06:39.876Z,100612.73
2023-04-22T05:09:09.121Z,100613.80
2023-04-22T05:11:37.338Z,100614.70
2023-04-22T05:14:06.326Z,100621.45
2023-04-22T05:16:35.002Z,100622.17
2023-04-22T05:19:04.247Z,100623.77
2023-04-22T05:21:32.461Z,100626.25
2023-04-22T05:24:01.342Z,100624.13
2023-04-22T05:26:29.755Z,100626.44
2023-04-22T05:28:58.023Z,100628.23
2023-04-22T05:31:26.422Z,100628.20
2023-04-22T05:33:54.576Z,100629.46
2023-04-22T05:36:23.619Z,100630.17
2023-04-22T05:38:53.196Z,100629.10
2023-04-22T05:41:21.396Z,100634.09
2023-04-22T05:43:50.472Z,100638.55
2023-04-22T05:46:18.885Z,100638.55
2023-04-22T05:48:47.019Z,100638.73
2023-04-22T05:51:15.747Z,100643.90
2023-04-22T05:53:43.968Z,100644.61
2023-04-22T05:56:12.036Z,100647.81
2023-04-22T05:58:40.600Z,100651.38
2023-04-22T06:01:09.942Z,100654.95
2023-04-22T06:03:38.856Z,100656.38
2023-04-22T06:06:08.044Z,100661.00
2023-04-22T06:08:36.270Z,100664.92
2023-04-22T06:11:05.149Z,100666.17
2023-04-22T06:13:33.803Z,100678.10
2023-04-22T06:16:02.772Z,100680.78
2023-04-22T06:18:31.161Z,100683.14
2023-04-22T06:20:59.859Z,100684.73
2023-04-22T06:23:28.240Z,100685.63
2023-04-22T06:25:56.486Z,100689.72
2023-04-22T06:28:24.902Z,100688.64
2023-04-22T06:30:54.200Z,100692.92
2023-04-22T06:33:22.905Z,100693.46
2023-04-22T06:35:51.407Z,100689.91
2023-04-22T06:38:20.144Z,100693.46
2023-04-22T06:40:48.879Z,100692.20
2023-04-22T06:43:17.345Z,100696.84
2023-04-22T06:45:45.967Z,100703.96
2023-04-22T06:48:14.672Z,100705.74
2023-04-22T06:50:43.862Z,100699.66
2023-04-22T06:53:12.333Z,100702.69
2023-04-22T06:55:41.165Z,100704.65
2023-04-22T06:58:10.583Z,100705.52
2023-04-22T07:00:39.226Z,100709.27
2023-04-22T07:03:07.501Z,100714.25
2023-04-22T07:05:37.816Z,100715.66
2023-04-22T07:08:06.819Z,100719.75
2023-04-22T07:10:35.730Z,100724.75
2023-04-22T07:13:04.041Z,100720.81
2023-04-22T07:15:32.817Z,100716.31
2023-04-22T07:18:01.398Z,100711.35
2023-04-22T07:20:29.583Z,100714.53
2023-04-22T07:22:58.311Z,100712.73
2023-04-22T07:25:27.614Z,100718.05
2023-04-22T07:27:56.755Z,100722.48
2023-04-22T07:30:25.227Z,100722.10
2023-04-22T07:32:54.049Z,100726.52
2023-04-22T07:35:22.447Z,100723.08
2023-04-22T07:37:51.523Z,100723.20
2023-04-22T07:40:19.858Z,100728.84
2023-04-22T07:42:48.015Z,100728.55
2023-04-22T07:45:16.709Z,100731.36
2023-04-22T07:47:44.792Z,100731.65
2023-04-22T07:50:13.558Z,100736.22
2023-04-22T07:52:41.661Z,100742.24
2023-04-22T07:55:10.457Z,100744.50
2023-04-22T07:57:39.146Z,100743.39
2023-04-22T08:00:10.196Z,100749.96
2023-04-22T08:02:39.545Z,100752.96
2023-04-22T08:05:10.008Z,100754.73
2023-04-22T08:07:38.176Z,100751.82
2023-04-22T08:10:07.655Z,100744.42
2023-04-22T08:12:36.328Z,100745.23
2023-04-22T08:15:05.245Z,100742.63
2023-04-22T08:17:33.545Z,100738.55
2023-04-22T08:20:02.518Z,100739.84
2023-04-22T08:22:31.320Z,100745.73
2023-04-22T08:25:00.564Z,100739.27
2023-04-22T08:27:30.418Z,100741.77
2023-04-22T08:29:58.757Z,100743.89
2023-04-22T08:32:27.163Z,100737.57
2023-04-22T08:35:03.867Z,100737.84
2023-04-22T08:37:34.729Z,100736.17
2023-04-22T08:40:03.705Z,100732.90
2023-04-22T08:42:31.906Z,100731.59
2023-04-22T08:45:01.505Z,100734.52
2023-04-22T08:47:32.387Z,100729.09
2023-04-22T08:50:02.926Z,100730.02
2023-04-22T08:52:31.946Z,100724.58
2023-04-22T08:55:01.467Z,100720.92
2023-04-22T08:57:31.649Z,100718.96
2023-04-22T09:00:00.954Z,100718.31
2023-04-22T09:02:32.632Z,100718.11
2023-04-22T09:05:03.265Z,100723.71
2023-04-22T09:07:33.734Z,100724.65
2023-04-22T09:10:02.964Z,100727.67
2023-04-22T09:12:31.783Z,100726.89
2023-04-22T09:15:01.100Z,100726.70
2023-04-22T09:17:37.023Z,100730.06
2023-04-22T09:20:07.594Z,100740.36
2023-04-22T09:22:48.681Z,100743.69
2023-04-22T09:25:21.725Z,100745.27
2023-04-22T09:27:56.032Z,100744.19
2023-04-22T09:30:26.552Z,100747.98
2023-04-22T09:32:57.667Z,100743.97
2023-04-22T09:35:27.402Z,100739.08
2023-04-22T09:37:56.660Z,100744.50
2023-04-22T09:40:26.837Z,100741.42
2023-04-22T09:42:58.437Z,100745.63
2023-04-22T09:45:38.036Z,100742.92
2023-04-22T09:48:13.383Z,100736.48
2023-04-22T09:50:48.720Z,100734.48
2023-04-22T09:53:19.678Z,100737.77
2023-04-22T09:55:55.377Z,100735.79
2023-04-22T09:58:24.105Z,100729.09
2023-04-22T10:00:55.274Z,100731.21
2023-04-22T10:03:26.027Z,100735.60
2023-04-22T10:05:54.986Z,100732.16
2023-04-22T10:08:26.837Z,100732.05
2023-04-22T10:10:56.027Z,100730.14
2023-04-22T10:13:25.274Z,100729.92
2023-04-22T10:15:56.264Z,100727.96
2023-04-22T10:18:27.479Z,100729.24
2023-04-22T10:20:59.139Z,100724.57
2023-04-22T10:23:32.935Z,100724.40
2023-04-22T10:26:01.850Z,100718.32
2023-04-22T10:28:30.543Z,100722.70
2023-04-22T10:31:06.267Z,100723.52
2023-04-22T10:33:36.536Z,100728.77
2023-04-22T10:36:20.753Z,100731.42
2023-04-22T10:38:58.344Z,100733.58
2023-04-22T10:41:35.015Z,100737.32
2023-04-22T10:44:14.079Z,100738.06
2023-04-22T10:47:00.854Z,100734.52
2023-04-22T10:49:31.459Z,100740.74
2023-04-22T10:52:01.142Z,100738.16
2023-04-22T10:54:32.639Z,100739.70
2023-04-22T10:57:15.480Z,100742.56
2023-04-22T10:59:50.520Z,100748.52
2023-04-22T11:02:20.387Z,100751.91
2023-04-22T11:04:50.989Z,100759.76
2023-04-22T11:07:23.009Z,100767.46
2023-04-22T11:10:10.386Z,100759.82
2023-04-22T11:12:44.476Z,100752.34
2023-04-22T11:15:18.600Z,100750.91
2023-04-22T11:17:52.504Z,100750.52
2023-04-22T11:20:21.701Z,100750.61
2023-04-22T11:22:55.479Z,100742.70
2023-04-22T11:25:26.454Z,100741.60
2023-04-22T11:27:54.744Z,100742.37
2023-04-22T11:30:25.373Z,100744.56
2023-04-22T11:32:57.600Z,100744.63
2023-04-22T11:35:29.071Z,100744.73
2023-04-22T11:37:58.973Z,100729.56
2023-04-22T11:40:31.650Z,100729.30
2023-04-22T11:43:03.461Z,100717.91
2023-04-22T11:45:34.229Z,100719.85
2023-04-22T11:48:06.515Z,100725.07
2023-04-22T11:50:39.143Z,100728.73
2023-04-22T11:53:20.022Z,100736.81
2023-04-22T11:55:51.402Z,100738.80
2023-04-22T11:58:25.633Z,100733.80
2023-04-22T12:00:55.888Z,100732.84
2023-04-22T12:03:32.369Z,100729.20
2023-04-22T12:06:04.531Z,100718.63
2023-04-22T12:08:38.677Z,100718.89
2023-04-22T12:11:10.401Z,100711.34
2023-04-22T12:13:44.343Z,100713.91
2023-04-22T12:16:16.434Z,100710.64
2023-04-22T12:18:50.235Z,100710.80
2023-04-22T12:21:26.501Z,100708.80
2023-04-22T12:24:02.662Z,100702.68
2023-04-22T12:26:31.149Z,100696.88
2023-04-22T12:29:01.154Z,100698.69
2023-04-22T12:31:29.986Z,100704.09
2023-04-22T12:33:59.734Z,100706.59
2023-04-22T12:36:28.624Z,100695.66
2023-04-22T12:38:56.866Z,100691.37
2023-04-22T12:41:25.843Z,100691.11
2023-04-22T12:43:54.660Z,100686.48
2023-04-22T12:46:22.824Z,100687.59
2023-04-22T12:48:51.396Z,100686.30
2023-04-22T12:51:19.870Z,100680.55
2023-04-22T12:53:48.866Z,100674.33
2023-04-22T12:56:17.817Z,100669.42
2023-04-22T12:58:47.783Z,100670.77
2023-04-22T13:01:16.375Z,100671.45
2023-04-22T13:03:45.261Z,100670.37
2023-04-22T13:06:15.050Z,100665.93
2023-04-22T13:08:43.764Z,100661.56
2023-04-22T13:11:12.477Z,100664.95
2023-04-22T13:13:41.842Z,100667.39
2023-04-22T13:16:11.199Z,100669.56
2023-04-22T13:18:39.565Z,100669.04
2023-04-22T13:21:08.654Z,100673.21
2023-04-22T13:23:36.971Z,100679.77
2023-04-22T13:26:06.271Z,100673.80
2023-04-22T13:28:34.890Z,100669.18
2023-04-22T13:31:03.517Z,100670.13
2023-04-22T13:33:33.017Z,100667.23
2023-04-22T13:36:02.215Z,100666.50
2023-04-22T13:38:30.678Z,100666.54
2023-04-22T13:41:01.189Z,100667.44
2023-04-22T13:43:31.658Z,100655.52
2023-04-22T13:46:00.595Z,100655.41
2023-04-22T13:48:29.457Z,100649.98
2023-04-22T13:50:58.451Z,100653.92
2023-04-22T13:53:27.494Z,100653.61
2023-04-22T13:55:55.667Z,100651.98
2023-04-22T13:58:23.800Z,100649.53
2023-04-22T14:00:52.666Z,100646.64
2023-04-22T14:03:21.621Z,100642.39
2023-04-22T14:05:50.491Z,100635.22
2023-04-22T14:08:19.165Z,100634.44
2023-04-22T14:10:48.593Z,100634.79
2023-04-22T14:13:18.140Z,100642.48
2023-04-22T14:15:47.713Z,100638.23
2023-04-22T14:18:18.004Z,100640.88
2023-04-22T14:20:46.175Z,100644.19
2023-04-22T14:23:14.357Z,100641.27
2023-04-22T14:25:44.126Z,100645.58
2023-04-22T14:28:14.101Z,100646.67
2023-04-22T14:30:43.018Z,100640.27
2023-04-22T14:33:11.824Z,100642.55
2023-04-22T14:35:39.999Z,100642.21
2023-04-22T14:38:11.298Z,100636.85
2023-04-22T14:40:40.076Z,100636.42
2023-04-22T14:43:08.784Z,100633.92
2023-04-22T14:45:37.039Z,100627.71
2023-04-22T14:48:05.317Z,100628.19
2023-04-22T14:50:33.674Z,100634.70
2023-04-22T14:53:01.983Z,100631.23
2023-04-22T14:55:30.096Z,100633.70
2023-04-22T14:57:58.842Z,100631.42
2023-04-22T15:00:28.539Z,100631.06
2023-04-22T15:02:58.343Z,100628.93
2023-04-22T15:05:27.055Z,100627.47
2023-04-22T15:07:55.773Z,100632.27
2023-04-22T15:10:25.421Z,100628.59
2023-04-22T15:12:54.535Z,100629.49
2023-04-22T15:15:23.451Z,100632.89
2023-04-22T15:17:52.223Z,100637.31
2023-04-22T15:20:21.503Z,100638.25
2023-04-22T15:22:50.335Z,100641.06
2023-04-22T15:25:19.364Z,100637.22
2023-04-22T15:27:48.708Z,100629.61
2023-04-22T15:30:17.015Z,100632.67
2023-04-22T15:32:45.347Z,100634.85
2023-04-22T15:35:13.474Z,100635.58
2023-04-22T15:37:42.509Z,100631.63
2023-04-22T15:40:10.813Z,100624.84
2023-04-22T15:42:39.217Z,100616.92
2023-04-22T15:45:08.857Z,100620.91
2023-04-22T15:47:39.846Z,100619.23
2023-04-22T15:50:10.153Z,100622.20
2023-04-22T15:52:39.229Z,100622.07
2023-04-22T15:55:08.241Z,100630.45
2023-04-22T15:57:37.592Z,100642.00
2023-04-22T16:00:11.851Z,100647.43
2023-04-22T16:02:43.955Z,100647.24
2023-04-22T16:05:12.366Z,100650.98
2023-04-22T16:07:40.932Z,100655.70
2023-04-22T16:10:10.167Z,100657.38
2023-04-22T16:12:38.687Z,100659.73
2023-04-22T16:15:08.192Z,100663.00
2023-04-22T16:17:38.344Z,100655.58
2023-04-22T16:20:08.454Z,100662.52
2023-04-22T16:22:36.784Z,100656.66
2023-04-22T16:25:06.051Z,100654.88
2023-04-22T16:27:34.303Z,100659.92
2023-04-22T16:30:02.573Z,100665.38
2023-04-22T16:32:31.566Z,100669.04
2023-04-22T16:35:00.102Z,100670.72
2023-04-22T16:37:29.525Z,100668.71
2023-04-22T16:39:58.157Z,100673.00
2023-04-22T16:42:27.002Z,100682.06
2023-04-22T16:44:55.686Z,100694.55
2023-04-22T16:47:24.890Z,100700.93
2023-04-22T16:49:53.580Z,100714.42
2023-04-22T16:52:22.726Z,100733.81
2023-04-22T16:54:51.199Z,100739.40
2023-04-22T16:57:19.959Z,100738.02
2023-04-22T16:59:48.845Z,100728.77
2023-04-22T17:02:17.657Z,100725.25
2023-04-22T17:04:45.997Z,100708.97
2023-04-22T17:07:14.781Z,100697.42
2023-04-22T17:09:43.506Z,100691.45
2023-04-22T17:12:13.055Z,100689.10
2023-04-22T17:14:41.219Z,100688.52
2023-04-22T17:17:09.806Z,100690.80
2023-04-22T17:19:38.194Z,100691.88
2023-04-22T17:22:07.990Z,100698.44
2023-04-22T17:24:36.671Z,100698.94
2023-04-22T17:27:06.107Z,100696.35
2023-04-22T17:29:34.801Z,100706.17
2023-04-22T17:32:03.055Z,100715.38
2023-04-22T17:34:31.788Z,100713.59
2023-04-22T17:36:59.955Z,100709.39
2023-04-22T17:39:28.214Z,100699.64
2023-04-22T17:41:56.634Z,100695.34
2023-04-22T17:44:25.726Z,100693.64
2023-04-22T17:46:54.447Z,100689.75
2023-04-22T17:49:22.791Z,100690.57
2023-04-22T17:51:52.583Z,100702.17
2023-04-22T17:54:21.676Z,100703.14
2023-04-22T17:56:52.499Z,100701.69
2023-04-22T17:59:22.163Z,100695.11
2023-04-22T18:01:52.340Z,100685.31
2023-04-22T18:04:20.987Z,100689.89
2023-04-22T18:06:49.262Z,100694.18
2023-04-22T18:09:18.020Z,100699.61
2023-04-22T18:11:46.924Z,100700.92
2023-04-22T18:14:15.862Z,100698.76
2023-04-22T18:16:44.020Z,100694.05
2023-04-22T18:19:12.110Z,100690.91
2023-04-22T18:21:46.595Z,100691.13
2023-04-22T18:24:22.305Z,100688.82
2023-04-22T18:26:50.538Z,100688.39
2023-04-22T18:29:19.372Z,100693.66
2023-04-22T18:31:48.794Z,100695.63
2023-04-22T18:34:18.231Z,100694.43
2023-04-22T18:36:46.940Z,100696.84
2023-04-22T18:39:15.159Z,100697.56
2023-04-22T18:41:43.524Z,100698.19
2023-04-22T18:44:12.134Z,100700.88
2023-04-22T18:46:41.848Z,100706.27
2023-04-22T18:49:10.263Z,100712.17
2023-04-22T18:51:39.943Z,100714.67
2023-04-22T18:54:10.603Z,100723.27
2023-04-22T18:56:40.123Z,100729.52
2023-04-22T18:59:08.908Z,100735.45
2023-04-22T19:01:38.033Z,100736.54
2023-04-22T19:04:06.283Z,100738.37
2023-04-22T19:06:35.175Z,100744.11
2023-04-22T19:09:04.549Z,100749.13
2023-04-22T19:11:33.435Z,100746.46
2023-04-22T19:14:02.111Z,100748.44
2023-04-22T19:16:30.740Z,100749.50
2023-04-22T19:18:59.677Z,100751.16
2023-04-22T19:21:27.946Z,100749.38
2023-04-22T19:23:56.331Z,100746.36
2023-04-22T19:26:25.383Z,100744.58
2023-04-22T19:28:54.529Z,100751.59
2023-04-22T19:31:23.032Z,100757.15
2023-04-22T19:33:52.941Z,100762.38
2023-04-22T19:36:21.105Z,100764.77
2023-04-22T19:38:50.274Z,100761.60
2023-04-22T19:41:18.512Z,100762.70
2023-04-22T19:43:47.707Z,100768.10
2023-04-22T19:46:16.153Z,100768.11
2023-04-22T19:48:45.046Z,100774.27
2023-04-22T19:51:13.867Z,100772.52
2023-04-22T19:53:43.638Z,100776.65
2023-04-22T19:56:13.019Z,100773.58
2023-04-22T19:58:42.786Z,100771.23
2023-04-22T20:01:12.193Z,100774.27
2023-04-22T20:03:41.262Z,100770.70
2023-04-22T20:06:12.440Z,100773.94
2023-04-22T20:08:42.607Z,100776.98
2023-04-22T20:11:11.637Z,100772.36
2023-04-22T20:13:41.254Z,100770.45
2023-04-22T20:16:09.890Z,100773.69
2023-04-22T20:18:38.480Z,100783.19
2023-04-22T20:21:08.881Z,100789.30
2023-04-22T20:23:39.713Z,100792.04
2023-04-22T20:26:08.513Z,100798.70
2023-04-22T20:28:43.127Z,100801.94
2023-04-22T20:31:13.651Z,100799.45
2023-04-22T20:33:42.024Z,100807.18
2023-04-22T20:36:13.873Z,100808.83
2023-04-22T20:38:43.220Z,100804.24
2023-04-22T20:41:11.527Z,100804.66
2023-04-22T20:43:41.600Z,100808.41
2023-04-22T20:46:11.195Z,100811.63
2023-04-22T20:48:40.463Z,100815.58
2023-04-22T20:51:09.134Z,100813.81
2023-04-22T20:53:38.010Z,100811.34
2023-04-22T20:56:06.897Z,100812.71
2023-04-22T20:58:35.819Z,100815.46
2023-04-22T21:01:04.588Z,100818.91
2023-04-22T21:03:34.045Z,100822.49
2023-04-22T21:06:03.211Z,100825.73
2023-04-22T21:08:35.558Z,100821.40
2023-04-22T21:11:04.105Z,100819.76
2023-04-22T21:13:32.969Z,100820.52
2023-04-22T21:16:07.713Z,100822.87
2023-04-22T21:18:39.812Z,100823.98
2023-04-22T21:21:10.023Z,100826.67
2023-04-22T21:23:41.303Z,100827.20
2023-04-22T21:26:11.044Z,100820.04
2023-04-22T21:28:40.665Z,100821.82
2023-04-22T21:31:09.329Z,100818.77
2023-04-22T21:33:38.162Z,100819.31
2023-04-22T21:36:07.078Z,100817.35
2023-04-22T21:38:35.355Z,100817.70
2023-04-22T21:41:04.507Z,100814.14
2023-04-22T21:43:33.617Z,100812.91
2023-04-22T21:46:02.552Z,100816.86
2023-04-22T21:48:31.516Z,100821.89
2023-04-22T21:50:59.978Z,100822.44
2023-04-22T21:53:29.175Z,100822.25
2023-04-22T21:55:58.240Z,100824.05
2023-04-22T21:58:27.316Z,100827.09
2023-04-22T22:00:55.922Z,100831.77
2023-04-22T22:03:25.691Z,100831.77
2023-04-22T22:05:54.194Z,100834.48
2023-04-22T22:08:23.171Z,100829.10
2023-04-22T22:10:52.485Z,100827.14
2023-04-22T22:13:20.546Z,100829.85
2023-04-22T22:15:49.121Z,100831.13
2023-04-22T22:18:19.043Z,100833.67
2023-04-22T22:20:47.540Z,100829.04
2023-04-22T22:23:19.544Z,100835.15
2023-04-22T22:25:49.125Z,100833.55
2023-04-22T22:28:18.318Z,100834.98
2023-04-22T22:30:46.937Z,100837.73
2023-04-22T22:33:15.297Z,100834.86
2023-04-22T22:35:44.126Z,100831.48
2023-04-22T22:38:12.802Z,100835.42
2023-04-22T22:40:42.267Z,100836.16
2023-04-22T22:43:11.326Z,100839.59
2023-04-22T22:45:40.589Z,100842.28
2023-04-22T22:48:09.600Z,100843.03
2023-04-22T22:50:38.357Z,100842.31
2023-04-22T22:53:07.213Z,100846.97
2023-04-22T22:55:36.201Z,100847.67
2023-04-22T22:58:04.929Z,100847.68
2023-04-22T23:00:33.618Z,100845.19
2023-04-22T23:03:03.848Z,100840.70
2023-04-22T23:05:32.472Z,100848.79
2023-04-22T23:08:00.858Z,100857.94
2023-04-22T23:10:29.389Z,100858.38
2023-04-22T23:12:58.876Z,100855.71
2023-04-22T23:15:27.618Z,100853.91
2023-04-22T23:17:56.982Z,100857.47
2023-04-22T23:20:26.154Z,100861.04
2023-04-22T23:22:54.921Z,100864.96
2023-04-22T23:25:24.092Z,100868.38
2023-04-22T23:27:53.059Z,100870.95
2023-04-22T23:30:22.086Z,100873.64
2023-04-22T23:32:52.400Z,100870.06
2023-04-22T23:35:22.670Z,100874.00
2023-04-22T23:37:52.763Z,100874.38
2023-04-22T23:40:20.942Z,100873.89
2023-04-22T23:42:49.742Z,100875.55
2023-04-22T23:45:19.279Z,100872.41
2023-04-22T23:47:48.331Z,100870.83
2023-04-22T23:50:17.788Z,100866.95
2023-04-22T23:52:46.632Z,100863.42
2023-04-22T23:55:15.770Z,100860.75
2023-04-22T23:57:44.256Z,100862.90
